sensor_id;sensor_type;location;lat;lon;timestamp;pressure;altitude;pressure_sealevel;temperature;humidity
67842;BME280;54642;59.126;37.876;2023-08-07T00:01:07;100224.50;;;25.09;67.77
67842;BME280;54642;59.126;37.876;2023-08-07T00:03:33;100228.38;;;25.04;68.05
67842;BME280;54642;59.126;37.876;2023-08-07T00:05:59;100228.38;;;25.04;68.21
67842;BME280;54642;59.126;37.876;2023-08-07T00:08:24;100225.06;;;25.00;68.06
67842;BME280;54642;59.126;37.876;2023-08-07T00:10:53;100221.66;;;24.98;68.27
67842;BME280;54642;59.126;37.876;2023-08-07T00:13:18;100219.41;;;24.92;68.27
67842;BME280;54642;59.126;37.876;2023-08-07T00:15:44;100210.69;;;24.90;68.12
67842;BME280;54642;59.126;37.876;2023-08-07T00:18:10;100219.59;;;24.89;68.59
67842;BME280;54642;59.126;37.876;2023-08-07T00:20:36;100214.47;;;24.86;68.32
67842;BME280;54642;59.126;37.876;2023-08-07T00:23:02;100228.28;;;24.91;68.21
67842;BME280;54642;59.126;37.876;2023-08-07T00:25:28;100220.16;;;24.80;68.11
67842;BME280;54642;59.126;37.876;2023-08-07T00:27:54;100224.31;;;24.84;68.35
67842;BME280;54642;59.126;37.876;2023-08-07T00:30:20;100218.66;;;24.76;68.11
67842;BME280;54642;59.126;37.876;2023-08-07T00:32:46;100226.38;;;24.79;68.06
67842;BME280;54642;59.126;37.876;2023-08-07T00:35:12;100239.47;;;24.82;68.19
67842;BME280;54642;59.126;37.876;2023-08-07T00:37:38;100238.81;;;24.78;68.18
67842;BME280;54642;59.126;37.876;2023-08-07T00:40:04;100219.75;;;24.71;68.04
67842;BME280;54642;59.126;37.876;2023-08-07T00:42:31;100228.59;;;24.72;68.36
67842;BME280;54642;59.126;37.876;2023-08-07T00:44:57;100232.25;;;24.69;68.54
67842;BME280;54642;59.126;37.876;2023-08-07T00:47:23;100220.44;;;24.61;68.15
67842;BME280;54642;59.126;37.876;2023-08-07T00:49:49;100220.63;;;24.58;68.37
67842;BME280;54642;59.126;37.876;2023-08-07T00:52:15;100226.38;;;24.64;68.35
67842;BME280;54642;59.126;37.876;2023-08-07T00:54:41;100214.47;;;24.57;68.52
67842;BME280;54642;59.126;37.876;2023-08-07T00:57:10;100223.66;;;24.66;68.21
67842;BME280;54642;59.126;37.876;2023-08-07T00:59:38;100205.16;;;24.50;68.21
67842;BME280;54642;59.126;37.876;2023-08-07T01:02:06;100199.09;;;24.48;68.10
67842;BME280;54642;59.126;37.876;2023-08-07T01:04:32;100220.50;;;24.59;68.33
67842;BME280;54642;59.126;37.876;2023-08-07T01:06:58;100213.09;;;24.50;68.26
67842;BME280;54642;59.126;37.876;2023-08-07T01:09:25;100216.72;;;24.49;68.30
67842;BME280;54642;59.126;37.876;2023-08-07T01:12:10;100215.84;;;24.48;68.50
67842;BME280;54642;59.126;37.876;2023-08-07T01:14:52;100212.63;;;24.43;68.25
67842;BME280;54642;59.126;37.876;2023-08-07T01:17:22;100219.72;;;24.43;68.23
67842;BME280;54642;59.126;37.876;2023-08-07T01:19:52;100215.38;;;24.42;68.38
67842;BME280;54642;59.126;37.876;2023-08-07T01:22:19;100214.31;;;24.44;68.46
67842;BME280;54642;59.126;37.876;2023-08-07T01:24:48;100215.28;;;24.43;68.57
67842;BME280;54642;59.126;37.876;2023-08-07T01:29:59;100206.28;;;24.46;68.28
67842;BME280;54642;59.126;37.876;2023-08-07T01:32:39;100212.44;;;24.46;68.34
67842;BME280;54642;59.126;37.876;2023-08-07T01:35:08;100186.97;;;24.29;68.21
67842;BME280;54642;59.126;37.876;2023-08-07T01:37:41;100212.34;;;24.48;68.48
67842;BME280;54642;59.126;37.876;2023-08-07T01:40:08;100195.19;;;24.39;68.39
67842;BME280;54642;59.126;37.876;2023-08-07T01:42:36;100203.72;;;24.44;68.36
67842;BME280;54642;59.126;37.876;2023-08-07T01:45:04;100190.13;;;24.36;68.17
67842;BME280;54642;59.126;37.876;2023-08-07T01:47:30;100195.41;;;24.36;68.23
67842;BME280;54642;59.126;37.876;2023-08-07T01:49:56;100192.84;;;24.34;68.20
67842;BME280;54642;59.126;37.876;2023-08-07T01:52:22;100210.91;;;24.42;68.56
67842;BME280;54642;59.126;37.876;2023-08-07T01:54:48;100187.56;;;24.34;68.15
67842;BME280;54642;59.126;37.876;2023-08-07T01:57:14;100210.84;;;24.44;67.95
67842;BME280;54642;59.126;37.876;2023-08-07T01:59:40;100205.44;;;24.45;68.12
67842;BME280;54642;59.126;37.876;2023-08-07T02:02:06;100191.81;;;24.37;68.20
67842;BME280;54642;59.126;37.876;2023-08-07T02:04:32;100184.03;;;24.34;68.03
67842;BME280;54642;59.126;37.876;2023-08-07T02:06:58;100204.78;;;24.42;67.72
67842;BME280;54642;59.126;37.876;2023-08-07T02:09:24;100195.41;;;24.36;68.05
67842;BME280;54642;59.126;37.876;2023-08-07T02:11:49;100195.50;;;24.34;67.97
67842;BME280;54642;59.126;37.876;2023-08-07T02:14:15;100213.47;;;24.44;67.54
67842;BME280;54642;59.126;37.876;2023-08-07T02:16:41;100211.75;;;24.43;67.80
67842;BME280;54642;59.126;37.876;2023-08-07T02:19:07;100215.16;;;24.45;67.79
67842;BME280;54642;59.126;37.876;2023-08-07T02:21:33;100206.66;;;24.40;67.82
67842;BME280;54642;59.126;37.876;2023-08-07T02:23:59;100201.63;;;24.35;67.82
67842;BME280;54642;59.126;37.876;2023-08-07T02:26:25;100209.03;;;24.44;67.80
67842;BME280;54642;59.126;37.876;2023-08-07T02:28:51;100205.78;;;24.39;67.72
67842;BME280;54642;59.126;37.876;2023-08-07T02:31:16;100186.00;;;24.30;67.78
67842;BME280;54642;59.126;37.876;2023-08-07T02:33:42;100196.44;;;24.33;67.76
67842;BME280;54642;59.126;37.876;2023-08-07T02:36:08;100206.66;;;24.40;67.40
67842;BME280;54642;59.126;37.876;2023-08-07T02:38:34;100208.19;;;24.44;67.65
67842;BME280;54642;59.126;37.876;2023-08-07T02:41:01;100204.97;;;24.39;67.38
67842;BME280;54642;59.126;37.876;2023-08-07T02:43:27;100198.06;;;24.36;67.24
67842;BME280;54642;59.126;37.876;2023-08-07T02:45:54;100202.41;;;24.37;67.41
67842;BME280;54642;59.126;37.876;2023-08-07T02:48:20;100196.44;;;24.33;67.16
67842;BME280;54642;59.126;37.876;2023-08-07T02:50:46;100206.47;;;24.43;67.11
67842;BME280;54642;59.126;37.876;2023-08-07T02:53:12;100199.66;;;24.39;67.33
67842;BME280;54642;59.126;37.876;2023-08-07T02:55:38;100208.34;;;24.41;67.18
67842;BME280;54642;59.126;37.876;2023-08-07T02:58:04;100209.13;;;24.43;67.08
67842;BME280;54642;59.126;37.876;2023-08-07T03:00:30;100218.59;;;24.47;67.09
67842;BME280;54642;59.126;37.876;2023-08-07T03:02:55;100216.13;;;24.44;66.83
67842;BME280;54642;59.126;37.876;2023-08-07T03:05:21;100217.56;;;24.49;66.69
67842;BME280;54642;59.126;37.876;2023-08-07T03:07:47;100221.13;;;24.48;67.10
67842;BME280;54642;59.126;37.876;2023-08-07T03:10:13;100205.63;;;24.42;66.89
67842;BME280;54642;59.126;37.876;2023-08-07T03:12:39;100221.81;;;24.52;67.16
67842;BME280;54642;59.126;37.876;2023-08-07T03:15:05;100216.50;;;24.52;66.80
67842;BME280;54642;59.126;37.876;2023-08-07T03:17:31;100204.47;;;24.46;66.56
67842;BME280;54642;59.126;37.876;2023-08-07T03:19:57;100219.97;;;24.54;67.07
67842;BME280;54642;59.126;37.876;2023-08-07T03:22:23;100218.06;;;24.56;66.71
67842;BME280;54642;59.126;37.876;2023-08-07T03:24:51;100204.22;;;24.51;66.37
67842;BME280;54642;59.126;37.876;2023-08-07T03:27:17;100208.13;;;24.60;66.28
67842;BME280;54642;59.126;37.876;2023-08-07T03:29:45;100218.66;;;24.61;66.25
67842;BME280;54642;59.126;37.876;2023-08-07T03:32:11;100203.03;;;24.57;66.27
67842;BME280;54642;59.126;37.876;2023-08-07T03:34:37;100217.50;;;24.65;66.36
67842;BME280;54642;59.126;37.876;2023-08-07T03:37:05;100198.56;;;24.57;66.09
67842;BME280;54642;59.126;37.876;2023-08-07T03:39:31;100210.31;;;24.67;65.88
67842;BME280;54642;59.126;37.876;2023-08-07T03:41:56;100208.41;;;24.69;65.98
67842;BME280;54642;59.126;37.876;2023-08-07T03:44:23;100219.59;;;24.74;65.77
67842;BME280;54642;59.126;37.876;2023-08-07T03:46:49;100209.81;;;24.75;65.57
67842;BME280;54642;59.126;37.876;2023-08-07T03:49:17;100204.53;;;24.75;65.58
67842;BME280;54642;59.126;37.876;2023-08-07T03:51:43;100224.22;;;24.85;65.69
67842;BME280;54642;59.126;37.876;2023-08-07T03:54:09;100202.00;;;24.73;65.52
67842;BME280;54642;59.126;37.876;2023-08-07T03:56:35;100203.19;;;24.82;65.68
67842;BME280;54642;59.126;37.876;2023-08-07T03:59:04;100209.16;;;24.86;65.61
67842;BME280;54642;59.126;37.876;2023-08-07T04:01:30;100219.50;;;24.90;65.60
67842;BME280;54642;59.126;37.876;2023-08-07T04:03:58;100219.22;;;24.95;65.34
67842;BME280;54642;59.126;37.876;2023-08-07T04:06:24;100199.72;;;24.82;65.49
67842;BME280;54642;59.126;37.876;2023-08-07T04:08:52;100225.53;;;24.92;65.26
67842;BME280;54642;59.126;37.876;2023-08-07T04:11:18;100214.75;;;24.96;65.20
67842;BME280;54642;59.126;37.876;2023-08-07T04:13:44;100226.59;;;25.04;65.21
67842;BME280;54642;59.126;37.876;2023-08-07T04:16:10;100220.72;;;24.99;65.03
67842;BME280;54642;59.126;37.876;2023-08-07T04:18:36;100227.25;;;25.08;65.38
67842;BME280;54642;59.126;37.876;2023-08-07T04:21:02;100215.03;;;25.05;65.38
67842;BME280;54642;59.126;37.876;2023-08-07T04:23:28;100229.41;;;25.16;65.25
67842;BME280;54642;59.126;37.876;2023-08-07T04:25:54;100226.56;;;25.19;65.11
67842;BME280;54642;59.126;37.876;2023-08-07T04:28:20;100222.00;;;25.21;65.27
67842;BME280;54642;59.126;37.876;2023-08-07T04:30:49;100198.66;;;25.13;64.81
67842;BME280;54642;59.126;37.876;2023-08-07T04:33:16;100223.94;;;25.33;64.93
67842;BME280;54642;59.126;37.876;2023-08-07T04:35:42;100228.25;;;25.34;64.89
67842;BME280;54642;59.126;37.876;2023-08-07T04:38:08;100215.31;;;25.29;64.47
67842;BME280;54642;59.126;37.876;2023-08-07T04:40:33;100212.94;;;25.25;64.52
67842;BME280;54642;59.126;37.876;2023-08-07T04:42:59;100218.97;;;25.41;64.70
67842;BME280;54642;59.126;37.876;2023-08-07T04:45:26;100233.16;;;25.55;64.87
67842;BME280;54642;59.126;37.876;2023-08-07T04:47:52;100235.31;;;25.62;64.62
67842;BME280;54642;59.126;37.876;2023-08-07T04:50:18;100220.22;;;25.63;64.42
67842;BME280;54642;59.126;37.876;2023-08-07T04:52:43;100239.06;;;25.73;64.37
67842;BME280;54642;59.126;37.876;2023-08-07T04:55:12;100210.38;;;25.65;64.15
67842;BME280;54642;59.126;37.876;2023-08-07T04:57:38;100230.50;;;25.82;64.25
67842;BME280;54642;59.126;37.876;2023-08-07T05:00:05;100215.22;;;25.85;64.32
67842;BME280;54642;59.126;37.876;2023-08-07T05:02:31;100218.56;;;26.02;64.16
67842;BME280;54642;59.126;37.876;2023-08-07T05:04:57;100221.56;;;26.10;63.99
67842;BME280;54642;59.126;37.876;2023-08-07T05:07:22;100205.53;;;26.12;63.98
67842;BME280;54642;59.126;37.876;2023-08-07T05:09:48;100209.16;;;26.23;63.47
67842;BME280;54642;59.126;37.876;2023-08-07T05:12:16;100179.19;;;26.21;63.51
67842;BME280;54642;59.126;37.876;2023-08-07T05:14:42;100196.00;;;26.35;63.33
67842;BME280;54642;59.126;37.876;2023-08-07T05:17:08;100207.69;;;26.45;63.04
67842;BME280;54642;59.126;37.876;2023-08-07T05:19:33;100205.91;;;26.46;63.05
67842;BME280;54642;59.126;37.876;2023-08-07T05:21:59;100217.47;;;26.57;62.98
67842;BME280;54642;59.126;37.876;2023-08-07T05:24:25;100219.84;;;26.62;63.03
67842;BME280;54642;59.126;37.876;2023-08-07T05:26:51;100196.00;;;26.60;62.74
67842;BME280;54642;59.126;37.876;2023-08-07T05:29:17;100197.09;;;26.71;62.34
67842;BME280;54642;59.126;37.876;2023-08-07T05:31:43;100210.03;;;26.75;62.15
67842;BME280;54642;59.126;37.876;2023-08-07T05:34:09;100200.28;;;26.76;62.08
67842;BME280;54642;59.126;37.876;2023-08-07T05:36:34;100193.03;;;26.78;61.97
67842;BME280;54642;59.126;37.876;2023-08-07T05:39:00;100199.81;;;26.95;61.83
67842;BME280;54642;59.126;37.876;2023-08-07T05:41:26;100191.72;;;26.96;61.67
67842;BME280;54642;59.126;37.876;2023-08-07T05:43:52;100202.69;;;27.05;60.96
67842;BME280;54642;59.126;37.876;2023-08-07T05:46:18;100203.50;;;27.05;60.90
67842;BME280;54642;59.126;37.876;2023-08-07T05:48:44;100197.13;;;27.08;60.79
67842;BME280;54642;59.126;37.876;2023-08-07T05:51:09;100189.28;;;27.06;60.94
67842;BME280;54642;59.126;37.876;2023-08-07T05:53:35;100204.22;;;27.20;60.90
67842;BME280;54642;59.126;37.876;2023-08-07T05:56:02;100207.59;;;27.22;60.66
67842;BME280;54642;59.126;37.876;2023-08-07T05:58:28;100204.66;;;27.27;60.57
67842;BME280;54642;59.126;37.876;2023-08-07T06:00:54;100208.78;;;27.31;60.50
67842;BME280;54642;59.126;37.876;2023-08-07T06:03:22;100201.13;;;27.26;60.32
67842;BME280;54642;59.126;37.876;2023-08-07T06:05:48;100204.84;;;27.36;60.09
67842;BME280;54642;59.126;37.876;2023-08-07T06:08:17;100204.28;;;27.44;59.87
67842;BME280;54642;59.126;37.876;2023-08-07T06:10:43;100202.25;;;27.48;59.99
67842;BME280;54642;59.126;37.876;2023-08-07T06:13:09;100186.78;;;27.53;59.76
67842;BME280;54642;59.126;37.876;2023-08-07T06:15:35;100196.38;;;27.67;59.44
67842;BME280;54642;59.126;37.876;2023-08-07T06:18:01;100190.63;;;27.73;59.29
67842;BME280;54642;59.126;37.876;2023-08-07T06:20:27;100192.31;;;27.74;59.15
67842;BME280;54642;59.126;37.876;2023-08-07T06:22:53;100186.94;;;27.87;58.60
67842;BME280;54642;59.126;37.876;2023-08-07T06:25:19;100193.06;;;28.00;58.94
67842;BME280;54642;59.126;37.876;2023-08-07T06:27:45;100186.31;;;28.19;58.49
67842;BME280;54642;59.126;37.876;2023-08-07T06:30:11;100172.53;;;28.25;58.33
67842;BME280;54642;59.126;37.876;2023-08-07T06:32:37;100169.97;;;28.34;57.50
67842;BME280;54642;59.126;37.876;2023-08-07T06:35:03;100174.97;;;28.39;57.46
67842;BME280;54642;59.126;37.876;2023-08-07T06:37:30;100180.19;;;28.52;56.95
67842;BME280;54642;59.126;37.876;2023-08-07T06:39:56;100177.44;;;28.54;57.36
67842;BME280;54642;59.126;37.876;2023-08-07T06:42:22;100170.34;;;28.52;56.61
67842;BME280;54642;59.126;37.876;2023-08-07T06:44:48;100176.06;;;28.48;56.30
67842;BME280;54642;59.126;37.876;2023-08-07T06:47:14;100177.31;;;28.55;56.16
67842;BME280;54642;59.126;37.876;2023-08-07T06:49:39;100172.00;;;28.55;55.92
67842;BME280;54642;59.126;37.876;2023-08-07T06:52:06;100173.09;;;28.64;55.37
67842;BME280;54642;59.126;37.876;2023-08-07T06:54:31;100179.13;;;28.66;55.85
67842;BME280;54642;59.126;37.876;2023-08-07T06:56:57;100177.69;;;28.73;55.43
67842;BME280;54642;59.126;37.876;2023-08-07T06:59:23;100167.50;;;28.78;55.42
67842;BME280;54642;59.126;37.876;2023-08-07T07:01:49;100168.59;;;28.87;55.00
67842;BME280;54642;59.126;37.876;2023-08-07T07:04:15;100173.78;;;29.00;54.69
67842;BME280;54642;59.126;37.876;2023-08-07T07:06:41;100170.59;;;29.06;54.24
67842;BME280;54642;59.126;37.876;2023-08-07T07:09:07;100176.31;;;29.13;54.17
67842;BME280;54642;59.126;37.876;2023-08-07T07:11:33;100156.66;;;29.14;53.90
67842;BME280;54642;59.126;37.876;2023-08-07T07:14:00;100174.50;;;29.24;54.02
67842;BME280;54642;59.126;37.876;2023-08-07T07:16:26;100155.22;;;29.21;53.88
67842;BME280;54642;59.126;37.876;2023-08-07T07:18:52;100157.25;;;29.28;53.41
67842;BME280;54642;59.126;37.876;2023-08-07T07:21:18;100159.94;;;29.28;53.60
67842;BME280;54642;59.126;37.876;2023-08-07T07:23:44;100151.41;;;29.35;54.10
67842;BME280;54642;59.126;37.876;2023-08-07T07:26:10;100159.47;;;29.56;53.12
67842;BME280;54642;59.126;37.876;2023-08-07T07:28:38;100165.16;;;29.62;52.42
67842;BME280;54642;59.126;37.876;2023-08-07T07:31:04;100156.00;;;29.65;52.83
67842;BME280;54642;59.126;37.876;2023-08-07T07:33:30;100157.84;;;29.64;52.41
67842;BME280;54642;59.126;37.876;2023-08-07T07:35:56;100170.97;;;29.68;52.48
67842;BME280;54642;59.126;37.876;2023-08-07T07:38:22;100156.22;;;29.73;52.22
67842;BME280;54642;59.126;37.876;2023-08-07T07:40:48;100168.50;;;29.76;51.79
67842;BME280;54642;59.126;37.876;2023-08-07T07:43:14;100157.56;;;29.79;51.19
67842;BME280;54642;59.126;37.876;2023-08-07T07:45:40;100142.38;;;29.79;51.35
67842;BME280;54642;59.126;37.876;2023-08-07T07:48:06;100137.03;;;29.79;51.19
67842;BME280;54642;59.126;37.876;2023-08-07T07:50:33;100164.03;;;29.97;50.69
67842;BME280;54642;59.126;37.876;2023-08-07T07:52:59;100153.63;;;29.94;50.46
67842;BME280;54642;59.126;37.876;2023-08-07T07:55:25;100154.38;;;29.85;50.32
67842;BME280;54642;59.126;37.876;2023-08-07T07:57:51;100158.09;;;29.94;50.76
67842;BME280;54642;59.126;37.876;2023-08-07T08:00:17;100147.84;;;29.78;49.62
67842;BME280;54642;59.126;37.876;2023-08-07T08:02:48;100150.31;;;29.70;49.44
67842;BME280;54642;59.126;37.876;2023-08-07T08:05:14;100168.75;;;29.73;49.13
67842;BME280;54642;59.126;37.876;2023-08-07T08:07:41;100160.97;;;29.81;50.06
67842;BME280;54642;59.126;37.876;2023-08-07T08:10:08;100156.19;;;29.84;49.09
67842;BME280;54642;59.126;37.876;2023-08-07T08:12:35;100168.47;;;29.87;49.26
67842;BME280;54642;59.126;37.876;2023-08-07T08:15:01;100161.63;;;29.94;48.66
67842;BME280;54642;59.126;37.876;2023-08-07T08:17:27;100152.44;;;29.87;48.64
67842;BME280;54642;59.126;37.876;2023-08-07T08:19:53;100165.13;;;29.95;48.09
67842;BME280;54642;59.126;37.876;2023-08-07T08:22:21;100155.69;;;29.91;47.78
67842;BME280;54642;59.126;37.876;2023-08-07T08:24:46;100158.69;;;29.97;47.98
67842;BME280;54642;59.126;37.876;2023-08-07T08:27:13;100150.66;;;29.97;48.12
67842;BME280;54642;59.126;37.876;2023-08-07T08:29:39;100151.84;;;30.04;48.08
67842;BME280;54642;59.126;37.876;2023-08-07T08:32:06;100161.44;;;30.07;47.42
67842;BME280;54642;59.126;37.876;2023-08-07T08:34:32;100137.75;;;30.02;47.69
67842;BME280;54642;59.126;37.876;2023-08-07T08:36:58;100148.44;;;30.02;47.94
67842;BME280;54642;59.126;37.876;2023-08-07T08:39:23;100147.41;;;30.15;47.60
67842;BME280;54642;59.126;37.876;2023-08-07T08:41:49;100138.88;;;30.21;47.84
67842;BME280;54642;59.126;37.876;2023-08-07T08:44:17;100144.63;;;30.26;47.65
67842;BME280;54642;59.126;37.876;2023-08-07T08:46:45;100141.97;;;30.26;47.17
67842;BME280;54642;59.126;37.876;2023-08-07T08:49:16;100159.66;;;30.38;47.31
67842;BME280;54642;59.126;37.876;2023-08-07T08:51:46;100160.09;;;30.44;47.03
67842;BME280;54642;59.126;37.876;2023-08-07T08:54:13;100160.75;;;30.57;47.35
67842;BME280;54642;59.126;37.876;2023-08-07T08:56:39;100157.78;;;30.60;46.94
67842;BME280;54642;59.126;37.876;2023-08-07T08:59:05;100147.38;;;30.57;47.35
67842;BME280;54642;59.126;37.876;2023-08-07T09:01:32;100155.84;;;30.62;46.91
67842;BME280;54642;59.126;37.876;2023-08-07T09:03:58;100140.28;;;30.46;47.14
67842;BME280;54642;59.126;37.876;2023-08-07T09:06:27;100135.72;;;30.37;46.78
67842;BME280;54642;59.126;37.876;2023-08-07T09:08:56;100145.91;;;30.43;47.62
67842;BME280;54642;59.126;37.876;2023-08-07T09:11:24;100137.56;;;30.36;47.17
67842;BME280;54642;59.126;37.876;2023-08-07T09:13:50;100136.72;;;30.36;47.67
67842;BME280;54642;59.126;37.876;2023-08-07T09:16:18;100143.09;;;30.45;47.31
67842;BME280;54642;59.126;37.876;2023-08-07T09:18:44;100147.00;;;30.40;47.24
67842;BME280;54642;59.126;37.876;2023-08-07T09:21:11;100136.59;;;30.37;47.26
67842;BME280;54642;59.126;37.876;2023-08-07T09:23:37;100128.91;;;30.33;47.31
67842;BME280;54642;59.126;37.876;2023-08-07T09:26:04;100129.97;;;30.41;47.38
67842;BME280;54642;59.126;37.876;2023-08-07T09:28:32;100136.03;;;30.44;47.33
67842;BME280;54642;59.126;37.876;2023-08-07T09:31:01;100142.53;;;30.51;47.26
67842;BME280;54642;59.126;37.876;2023-08-07T09:33:28;100127.63;;;30.48;47.86
67842;BME280;54642;59.126;37.876;2023-08-07T09:36:00;100140.53;;;30.43;47.17
67842;BME280;54642;59.126;37.876;2023-08-07T09:38:30;100121.38;;;30.38;47.47
67842;BME280;54642;59.126;37.876;2023-08-07T09:41:00;100130.44;;;30.47;47.26
67842;BME280;54642;59.126;37.876;2023-08-07T09:43:28;100125.09;;;30.47;47.42
67842;BME280;54642;59.126;37.876;2023-08-07T09:46:05;100140.13;;;30.48;47.13
67842;BME280;54642;59.126;37.876;2023-08-07T09:48:31;100122.63;;;30.34;47.04
67842;BME280;54642;59.126;37.876;2023-08-07T09:51:03;100108.38;;;30.33;47.20
67842;BME280;54642;59.126;37.876;2023-08-07T09:53:29;100117.75;;;30.39;46.37
67842;BME280;54642;59.126;37.876;2023-08-07T09:55:56;100121.03;;;30.31;46.33
67842;BME280;54642;59.126;37.876;2023-08-07T09:58:22;100102.03;;;30.25;46.29
67842;BME280;54642;59.126;37.876;2023-08-07T10:00:50;100104.53;;;30.26;46.21
67842;BME280;54642;59.126;37.876;2023-08-07T10:03:16;100085.13;;;30.24;45.91
67842;BME280;54642;59.126;37.876;2023-08-07T10:05:44;100080.06;;;30.21;46.12
67842;BME280;54642;59.126;37.876;2023-08-07T10:08:11;100098.78;;;30.21;46.38
67842;BME280;54642;59.126;37.876;2023-08-07T10:10:38;100104.13;;;30.21;46.32
67842;BME280;54642;59.126;37.876;2023-08-07T10:13:05;100088.72;;;30.13;46.10
67842;BME280;54642;59.126;37.876;2023-08-07T10:15:33;100089.44;;;30.15;45.95
67842;BME280;54642;59.126;37.876;2023-08-07T10:18:00;100099.03;;;30.18;46.11
67842;BME280;54642;59.126;37.876;2023-08-07T10:20:27;100086.63;;;30.17;45.79
67842;BME280;54642;59.126;37.876;2023-08-07T10:22:57;100093.69;;;30.18;45.47
67842;BME280;54642;59.126;37.876;2023-08-07T10:25:26;100091.72;;;30.20;45.71
67842;BME280;54642;59.126;37.876;2023-08-07T10:27:53;100068.94;;;30.16;45.70
67842;BME280;54642;59.126;37.876;2023-08-07T10:30:22;100075.69;;;30.20;45.78
67842;BME280;54642;59.126;37.876;2023-08-07T10:32:50;100071.06;;;30.22;46.06
67842;BME280;54642;59.126;37.876;2023-08-07T10:35:30;100072.06;;;30.21;45.98
67842;BME280;54642;59.126;37.876;2023-08-07T10:38:06;100072.88;;;30.21;46.05
67842;BME280;54642;59.126;37.876;2023-08-07T10:40:33;100076.25;;;30.14;46.32
67842;BME280;54642;59.126;37.876;2023-08-07T10:43:16;100071.31;;;30.19;46.36
67842;BME280;54642;59.126;37.876;2023-08-07T10:45:42;100073.97;;;30.19;46.21
67842;BME280;54642;59.126;37.876;2023-08-07T10:48:11;100069.06;;;30.14;46.39
67842;BME280;54642;59.126;37.876;2023-08-07T10:50:50;100066.16;;;30.27;46.50
67842;BME280;54642;59.126;37.876;2023-08-07T10:53:30;100063.03;;;30.22;46.45
67842;BME280;54642;59.126;37.876;2023-08-07T10:56:18;100052.34;;;30.22;46.48
67842;BME280;54642;59.126;37.876;2023-08-07T10:58:49;100043.34;;;30.23;46.53
67842;BME280;54642;59.126;37.876;2023-08-07T11:01:19;100043.63;;;30.20;46.70
67842;BME280;54642;59.126;37.876;2023-08-07T11:03:56;100038.41;;;30.18;46.54
67842;BME280;54642;59.126;37.876;2023-08-07T11:08:50;100028.41;;;30.11;46.96
67842;BME280;54642;59.126;37.876;2023-08-07T11:11:16;100030.38;;;30.18;46.85
67842;BME280;54642;59.126;37.876;2023-08-07T11:13:42;100027.41;;;30.12;47.26
67842;BME280;54642;59.126;37.876;2023-08-07T11:16:08;100034.75;;;30.19;47.07
67842;BME280;54642;59.126;37.876;2023-08-07T11:18:34;100036.44;;;30.20;47.64
67842;BME280;54642;59.126;37.876;2023-08-07T11:21:01;100019.13;;;30.15;47.38
67842;BME280;54642;59.126;37.876;2023-08-07T11:23:30;100022.38;;;30.18;46.92
67842;BME280;54642;59.126;37.876;2023-08-07T11:25:56;100030.56;;;30.27;47.11
67842;BME280;54642;59.126;37.876;2023-08-07T11:28:23;100008.75;;;30.21;47.01
67842;BME280;54642;59.126;37.876;2023-08-07T11:30:52;100021.97;;;30.23;47.19
67842;BME280;54642;59.126;37.876;2023-08-07T11:33:19;100008.56;;;30.13;46.98
67842;BME280;54642;59.126;37.876;2023-08-07T11:35:46;100017.16;;;30.17;47.27
67842;BME280;54642;59.126;37.876;2023-08-07T11:38:12;100024.19;;;30.18;47.11
67842;BME280;54642;59.126;37.876;2023-08-07T11:40:38;100013.75;;;30.05;47.68
67842;BME280;54642;59.126;37.876;2023-08-07T11:43:04;100008.97;;;30.09;47.76
67842;BME280;54642;59.126;37.876;2023-08-07T11:45:30;100000.84;;;30.10;47.70
67842;BME280;54642;59.126;37.876;2023-08-07T11:47:56;99999.69;;;30.13;47.52
67842;BME280;54642;59.126;37.876;2023-08-07T11:50:23;100005.50;;;30.18;47.42
67842;BME280;54642;59.126;37.876;2023-08-07T11:52:49;100003.66;;;30.18;47.66
67842;BME280;54642;59.126;37.876;2023-08-07T11:55:16;100011.72;;;30.28;47.79
67842;BME280;54642;59.126;37.876;2023-08-07T11:57:46;100002.00;;;30.27;47.46
67842;BME280;54642;59.126;37.876;2023-08-07T12:00:12;99993.28;;;30.25;47.88
67842;BME280;54642;59.126;37.876;2023-08-07T12:02:43;99988.75;;;30.26;48.08
67842;BME280;54642;59.126;37.876;2023-08-07T12:05:12;99991.44;;;30.26;47.58
67842;BME280;54642;59.126;37.876;2023-08-07T12:07:39;99993.97;;;30.27;48.29
67842;BME280;54642;59.126;37.876;2023-08-07T12:10:11;99994.81;;;30.28;48.33
67842;BME280;54642;59.126;37.876;2023-08-07T12:12:38;99999.53;;;30.35;48.25
67842;BME280;54642;59.126;37.876;2023-08-07T12:15:08;99998.53;;;30.36;48.25
67842;BME280;54642;59.126;37.876;2023-08-07T12:17:38;99984.25;;;30.26;48.47
67842;BME280;54642;59.126;37.876;2023-08-07T12:20:07;99991.31;;;30.27;48.54
67842;BME280;54642;59.126;37.876;2023-08-07T12:22:36;99984.81;;;30.20;48.35
67842;BME280;54642;59.126;37.876;2023-08-07T12:25:02;99985.63;;;30.11;48.48
67842;BME280;54642;59.126;37.876;2023-08-07T12:27:28;99982.97;;;30.11;48.60
67842;BME280;54642;59.126;37.876;2023-08-07T12:29:54;99995.50;;;30.20;48.66
67842;BME280;54642;59.126;37.876;2023-08-07T12:32:20;99990.03;;;30.21;48.72
67842;BME280;54642;59.126;37.876;2023-08-07T12:34:46;99968.34;;;30.15;48.56
67842;BME280;54642;59.126;37.876;2023-08-07T12:37:12;99990.47;;;30.27;48.54
67842;BME280;54642;59.126;37.876;2023-08-07T12:39:38;99974.84;;;30.22;48.73
67842;BME280;54642;59.126;37.876;2023-08-07T12:42:04;99980.88;;;30.24;48.39
67842;BME280;54642;59.126;37.876;2023-08-07T12:44:31;99967.38;;;30.16;48.16